Time;durP1;ratioP1;P1;durP2;ratioP2;P2;SDS_P1;SDS_P2;PMS_P1;PMS_P2;Temp;Humidity;BMP_temperature;BMP_pressure;BME280_temperature;BME280_humidity;BME280_pressure;Samples;Min_cycle;Max_cycle;Signal;HPM_P1;HPM_P2
2023/03/01 04:01:52;;;;;;;2.45;1.92;;;14.20;48.20;;;;;;5299131;23;46156;-71
2023/03/01 04:04:18;;;;;;;4.10;2.60;;;14.20;48.30;;;;;;4927754;28;45858;-66
2023/03/01 04:06:44;;;;;;;3.65;2.03;;;14.20;48.20;;;;;;4952118;28;45684;-61
2023/03/01 04:09:09;;;;;;;3.28;1.98;;;14.20;48.30;;;;;;4959432;28;45556;-75
2023/03/01 04:11:35;;;;;;;3.35;2.10;;;14.20;48.30;;;;;;4941220;28;45284;-79
2023/03/01 04:14:01;;;;;;;4.32;2.30;;;14.20;48.30;;;;;;4952855;28;45606;-70
2023/03/01 04:16:26;;;;;;;3.38;2.03;;;14.20;48.30;;;;;;4950897;28;45279;-68
2023/03/01 04:18:53;;;;;;;4.13;2.20;;;14.20;48.30;;;;;;4937615;28;45326;-69
2023/03/01 04:21:20;;;;;;;3.67;2.28;;;14.20;48.30;;;;;;4937542;28;45628;-66
2023/03/01 04:23:45;;;;;;;2.78;2.15;;;14.20;48.30;;;;;;4937798;28;45359;-69
2023/03/01 04:26:11;;;;;;;3.30;2.28;;;14.20;48.30;;;;;;4953354;28;45412;-76
2023/03/01 04:28:39;;;;;;;3.47;2.47;;;14.10;48.30;;;;;;4918885;28;45001;-69
2023/03/01 04:31:12;;;;;;;3.53;2.33;;;14.10;48.30;;;;;;4954177;28;45042;-71
2023/03/01 04:33:39;;;;;;;;;;;14.10;48.30;;;;;;4942573;28;46520;-68
2023/03/01 04:36:05;;;;;;;3.15;2.13;;;14.10;48.50;;;;;;4952377;28;45307;-66
2023/03/01 04:38:30;;;;;;;3.05;2.15;;;14.00;48.90;;;;;;4954813;28;45027;-69
2023/03/01 04:40:56;;;;;;;3.97;2.35;;;14.10;48.70;;;;;;4951749;28;45509;-70
2023/03/01 04:43:21;;;;;;;2.60;2.00;;;14.10;48.30;;;;;;4949616;28;47056;-71
2023/03/01 04:45:47;;;;;;;3.33;2.33;;;14.10;48.40;;;;;;4935617;28;45786;-73
2023/03/01 04:48:12;;;;;;;2.85;1.88;;;14.00;48.30;;;;;;4952672;28;44787;-73
2023/03/01 04:50:38;;;;;;;3.78;2.15;;;14.00;48.30;;;;;;4957228;28;44923;-71
2023/03/01 04:53:03;;;;;;;3.38;2.05;;;14.00;48.30;;;;;;4934605;28;45900;-69
2023/03/01 04:55:29;;;;;;;2.72;1.98;;;14.00;48.30;;;;;;4956551;28;45161;-73
2023/03/01 04:57:55;;;;;;;3.28;1.92;;;14.00;48.30;;;;;;4945359;28;45756;-71
2023/03/01 05:00:21;;;;;;;2.65;2.00;;;14.00;48.30;;;;;;4952285;28;45506;-78
2023/03/01 05:02:48;;;;;;;3.40;2.30;;;14.00;48.30;;;;;;4941809;28;46908;-70
2023/03/01 05:05:14;;;;;;;3.08;2.35;;;14.00;48.30;;;;;;4953817;28;45512;-75
2023/03/01 05:07:40;;;;;;;3.42;2.28;;;14.00;48.30;;;;;;4946888;28;44990;-71
2023/03/01 05:10:05;;;;;;;3.30;2.33;;;13.90;48.30;;;;;;4931380;28;45309;-73
2023/03/01 05:12:31;;;;;;;3.30;2.35;;;14.00;48.40;;;;;;4920622;28;45515;-74
2023/03/01 05:14:58;;;;;;;3.55;2.03;;;13.90;48.70;;;;;;4949267;28;45271;-73
2023/03/01 05:17:23;;;;;;;2.92;2.25;;;13.90;48.40;;;;;;4934416;28;45462;-78
2023/03/01 05:19:49;;;;;;;3.35;2.42;;;13.90;48.40;;;;;;4939559;28;45427;-71
2023/03/01 05:22:16;;;;;;;3.35;2.17;;;13.90;48.40;;;;;;4919390;28;47478;-65
2023/03/01 05:24:41;;;;;;;2.67;2.17;;;13.90;48.40;;;;;;4932499;28;46476;-69
2023/03/01 05:27:07;;;;;;;3.35;2.30;;;13.90;48.40;;;;;;4935334;28;46667;-69
2023/03/01 05:29:34;;;;;;;3.80;2.38;;;13.80;48.40;;;;;;4939362;28;45329;-71
2023/03/01 05:32:00;;;;;;;2.50;1.80;;;13.80;48.40;;;;;;4949178;28;47113;-74
2023/03/01 05:34:34;;;;;;;4.15;2.20;;;13.80;48.40;;;;;;4948122;28;45508;-74
2023/03/01 05:36:59;;;;;;;4.38;2.53;;;13.80;48.40;;;;;;4935881;28;45305;-68
2023/03/01 05:39:26;;;;;;;3.22;2.28;;;13.80;48.40;;;;;;4944773;28;45336;-70
2023/03/01 05:41:55;;;;;;;3.33;2.50;;;13.80;48.40;;;;;;4944234;28;45831;-71
2023/03/01 05:44:21;;;;;;;3.42;2.20;;;13.80;48.40;;;;;;4917087;28;45615;-73
2023/03/01 05:46:47;;;;;;;3.53;2.22;;;13.80;48.40;;;;;;4936236;28;45229;-65
2023/03/01 05:49:13;;;;;;;3.85;2.30;;;13.80;48.40;;;;;;4948383;28;45675;-72
2023/03/01 05:51:39;;;;;;;3.00;1.98;;;13.80;48.50;;;;;;4936382;28;45535;-74
2023/03/01 05:54:08;;;;;;;4.05;2.40;;;13.80;48.40;;;;;;4950790;28;45555;-69
2023/03/01 05:56:34;;;;;;;3.10;2.10;;;13.80;48.40;;;;;;4938536;28;45310;-65
2023/03/01 05:59:00;;;;;;;3.85;2.10;;;13.80;48.40;;;;;;4950029;28;45453;-69
2023/03/01 06:01:26;;;;;;;3.53;2.53;;;13.70;49.00;;;;;;4928582;28;45554;-65
2023/03/01 06:03:51;;;;;;;3.40;2.35;;;13.70;48.50;;;;;;4932935;28;44986;-63
2023/03/01 06:06:17;;;;;;;2.88;2.17;;;13.70;48.40;;;;;;4927226;28;48023;-77
2023/03/01 06:08:42;;;;;;;3.97;2.47;;;13.70;48.50;;;;;;4916109;28;45017;-68
2023/03/01 06:11:08;;;;;;;4.07;2.22;;;13.70;48.50;;;;;;4933946;28;47071;-66
2023/03/01 06:13:34;;;;;;;3.28;1.92;;;13.70;48.50;;;;;;4940279;28;45313;-67
2023/03/01 06:15:59;;;;;;;3.63;2.35;;;13.70;48.50;;;;;;4930847;28;45643;-67
2023/03/01 06:18:25;;;;;;;2.88;2.03;;;13.70;48.50;;;;;;4933605;28;44894;-67
2023/03/01 06:20:54;;;;;;;3.30;2.08;;;13.60;48.50;;;;;;4931687;28;45507;-75
2023/03/01 06:23:21;;;;;;;3.42;2.17;;;13.60;48.50;;;;;;4934225;28;45173;-68
2023/03/01 06:25:47;;;;;;;4.00;2.30;;;13.60;48.50;;;;;;4933378;28;45519;-64
2023/03/01 06:28:12;;;;;;;2.67;2.08;;;13.60;48.50;;;;;;4917727;28;45096;-67
2023/03/01 06:30:38;;;;;;;3.95;2.50;;;13.60;48.50;;;;;;4934560;28;46309;-67
2023/03/01 06:33:04;;;;;;;2.40;1.75;;;13.60;48.50;;;;;;4932925;28;45514;-74
2023/03/01 06:35:29;;;;;;;3.55;2.33;;;13.60;48.40;;;;;;4937585;28;45033;-64
2023/03/01 06:37:55;;;;;;;3.22;2.10;;;13.60;48.50;;;;;;4931231;28;45801;-67
2023/03/01 06:40:21;;;;;;;3.03;2.10;;;13.60;48.50;;;;;;4934158;28;45341;-74
2023/03/01 06:42:50;;;;;;;3.53;2.20;;;13.60;48.50;;;;;;4936208;28;45952;-68
2023/03/01 06:45:15;;;;;;;3.47;2.17;;;13.60;48.40;;;;;;4933134;28;45597;-64
2023/03/01 06:47:41;;;;;;;3.97;2.33;;;13.60;48.50;;;;;;4928337;28;44754;-73
2023/03/01 06:50:07;;;;;;;3.70;2.28;;;13.60;48.50;;;;;;4931395;28;45599;-69
2023/03/01 06:52:33;;;;;;;3.25;2.15;;;13.60;48.50;;;;;;4929000;28;45621;-63
2023/03/01 06:54:58;;;;;;;3.65;2.42;;;13.60;48.50;;;;;;4936984;28;45310;-63
2023/03/01 06:57:24;;;;;;;3.28;2.35;;;13.60;48.40;;;;;;4918423;28;45529;-63
2023/03/01 06:59:50;;;;;;;6.25;2.45;;;13.60;48.40;;;;;;4926667;28;46048;-62
2023/03/01 07:02:15;;;;;;;2.95;2.10;;;13.60;48.50;;;;;;4946441;28;45552;-63
2023/03/01 07:04:41;;;;;;;2.85;2.33;;;13.70;48.50;;;;;;4954955;28;46440;-62
2023/03/01 07:07:07;;;;;;;3.53;2.33;;;13.80;48.30;;;;;;4937092;28;45579;-63
2023/03/01 07:09:32;;;;;;;3.10;1.95;;;14.00;48.10;;;;;;4944092;28;46514;-63
2023/03/01 07:11:58;;;;;;;3.22;2.10;;;14.20;47.80;;;;;;4931865;28;44962;-62
2023/03/01 07:14:26;;;;;;;4.28;2.17;;;14.40;47.50;;;;;;4945328;28;45530;-62
2023/03/01 07:16:52;;;;;;;4.57;2.13;;;14.60;47.30;;;;;;4941313;28;45459;-62
2023/03/01 07:19:18;;;;;;;2.97;2.00;;;14.80;47.00;;;;;;4936697;28;45420;-62
2023/03/01 07:21:44;;;;;;;3.25;2.25;;;15.00;46.70;;;;;;4930417;28;44941;-63
2023/03/01 07:24:09;;;;;;;2.67;2.17;;;15.10;46.50;;;;;;4953779;28;45256;-65
2023/03/01 07:26:35;;;;;;;2.90;1.80;;;15.30;46.40;;;;;;4940718;28;45554;-65
2023/03/01 07:29:02;;;;;;;2.90;1.98;;;15.50;46.20;;;;;;4921913;28;45313;-65
2023/03/01 07:31:27;;;;;;;2.22;1.80;;;15.60;46.00;;;;;;4912538;28;45017;-64
2023/03/01 07:33:56;;;;;;;2.45;1.77;;;15.80;45.90;;;;;;4934763;28;45312;-64
2023/03/01 07:36:22;;;;;;;2.92;2.05;;;16.00;45.80;;;;;;4942912;28;45195;-65
2023/03/01 07:38:48;;;;;;;2.25;1.65;;;16.10;45.60;;;;;;4934146;28;45260;-65
2023/03/01 07:41:14;;;;;;;2.63;1.92;;;16.20;45.40;;;;;;4936623;28;45584;-65
2023/03/01 07:43:39;;;;;;;4.95;2.22;;;16.40;45.90;;;;;;4924211;28;45027;-65
2023/03/01 07:46:05;;;;;;;3.00;1.90;;;16.60;45.20;;;;;;4939046;28;45434;-64
2023/03/01 07:48:31;;;;;;;3.20;1.90;;;16.70;45.00;;;;;;4929522;28;45922;-64
2023/03/01 07:51:00;;;;;;;2.72;1.58;;;16.90;45.00;;;;;;4924170;28;45422;-65
2023/03/01 07:53:26;;;;;;;3.25;1.77;;;17.00;44.80;;;;;;4923714;28;45638;-66
2023/03/01 07:56:05;;;;;;;3.35;2.00;;;17.20;44.70;;;;;;4939695;28;45284;-65
2023/03/01 07:58:31;;;;;;;2.83;1.70;;;17.30;44.40;;;;;;4898462;28;47211;-65
2023/03/01 08:01:00;;;;;;;2.72;1.95;;;17.50;44.40;;;;;;4932847;28;45884;-65
2023/03/01 08:03:26;;;;;;;2.20;1.65;;;17.60;44.30;;;;;;4957323;28;44801;-65
2023/03/01 08:05:51;;;;;;;2.10;1.35;;;17.80;44.20;;;;;;4939329;28;45270;-64
2023/03/01 08:08:17;;;;;;;2.92;1.90;;;17.90;44.00;;;;;;4939621;28;48308;-65
2023/03/01 08:10:42;;;;;;;3.58;2.05;;;18.00;43.90;;;;;;4949357;28;45293;-64
2023/03/01 08:13:08;;;;;;;2.63;1.73;;;18.20;43.80;;;;;;4938178;28;45867;-65
2023/03/01 08:15:33;;;;;;;2.38;1.63;;;18.30;43.70;;;;;;4945590;28;45316;-64
2023/03/01 08:17:59;;;;;;;2.88;1.58;;;18.40;43.60;;;;;;4953581;28;48685;-65
2023/03/01 08:20:24;;;;;;;3.65;1.95;;;18.50;43.40;;;;;;4881057;28;45288;-65
2023/03/01 08:22:50;;;;;;;2.45;1.92;;;18.70;43.30;;;;;;4929813;28;46270;-64
2023/03/01 08:25:16;;;;;;;2.90;1.70;;;18.80;43.30;;;;;;4945946;28;45515;-65
2023/03/01 08:27:41;;;;;;;2.63;1.63;;;18.90;43.20;;;;;;4935085;28;46089;-65
2023/03/01 08:30:07;;;;;;;1.77;1.50;;;19.00;43.10;;;;;;4947618;28;45600;-65
2023/03/01 08:32:39;;;;;;;2.28;1.58;;;19.10;43.10;;;;;;4930540;28;44816;-66
2023/03/01 08:35:05;;;;;;;1.88;1.42;;;19.20;42.90;;;;;;4949952;28;44808;-65
2023/03/01 08:37:32;;;;;;;2.80;1.58;;;19.30;43.00;;;;;;4900720;28;45590;-64
2023/03/01 08:39:59;;;;;;;2.15;1.52;;;19.40;43.00;;;;;;4947398;28;46866;-66
2023/03/01 08:42:24;;;;;;;3.35;1.80;;;19.50;43.00;;;;;;4933950;28;45531;-66
2023/03/01 08:44:50;;;;;;;2.47;1.77;;;19.60;42.90;;;;;;4934319;28;45629;-64
2023/03/01 08:47:15;;;;;;;3.92;1.50;;;19.70;42.80;;;;;;4946551;28;45478;-65
2023/03/01 08:49:41;;;;;;;2.58;1.83;;;19.80;42.80;;;;;;4918877;28;45321;-65
2023/03/01 08:52:07;;;;;;;2.20;1.50;;;19.90;42.60;;;;;;4935632;28;45411;-66
2023/03/01 08:54:32;;;;;;;2.95;1.38;;;20.00;42.60;;;;;;4930379;28;44985;-66
2023/03/01 08:56:58;;;;;;;1.80;1.50;;;20.10;42.60;;;;;;4918816;28;46651;-66
2023/03/01 08:59:25;;;;;;;3.10;1.50;;;20.20;42.50;;;;;;4935528;28;45505;-66
2023/03/01 09:01:50;;;;;;;1.80;1.40;;;20.30;43.10;;;;;;4914461;28;45842;-64
2023/03/01 09:04:16;;;;;;;1.92;1.58;;;20.30;42.30;;;;;;4945575;28;45428;-66
2023/03/01 09:06:42;;;;;;;2.38;1.60;;;20.40;42.30;;;;;;4947594;28;46266;-65
2023/03/01 09:09:15;;;;;;;2.22;1.50;;;20.50;42.10;;;;;;4935913;28;46264;-66
2023/03/01 09:11:41;;;;;;;2.50;1.77;;;20.60;42.00;;;;;;4924419;28;44680;-66
2023/03/01 09:14:07;;;;;;;2.20;1.38;;;20.70;42.00;;;;;;4953848;28;45462;-65
2023/03/01 09:16:35;;;;;;;1.67;1.40;;;20.80;42.00;;;;;;4947815;28;46784;-66
2023/03/01 09:19:01;;;;;;;1.77;1.38;;;20.90;41.80;;;;;;4956650;28;45360;-65
2023/03/01 09:21:26;;;;;;;2.60;1.55;;;21.00;42.40;;;;;;4922680;28;45909;-66
2023/03/01 09:23:52;;;;;;;2.45;1.70;;;21.00;41.80;;;;;;4936502;28;45537;-66
2023/03/01 09:26:20;;;;;;;1.48;1.15;;;21.10;41.80;;;;;;4939805;28;46132;-65
2023/03/01 09:28:46;;;;;;;2.97;1.67;;;21.20;41.80;;;;;;4937084;28;45148;-65
2023/03/01 09:31:12;;;;;;;2.38;1.50;;;21.20;41.70;;;;;;4920723;28;45403;-66
2023/03/01 09:33:38;;;;;;;1.95;1.58;;;21.30;41.60;;;;;;4934063;28;45590;-67
2023/03/01 09:36:06;;;;;;;2.42;1.60;;;21.40;41.50;;;;;;4932755;28;45207;-65
2023/03/01 09:38:32;;;;;;;2.53;1.58;;;21.40;41.40;;;;;;4932263;28;45610;-66
2023/03/01 09:40:58;;;;;;;2.70;1.80;;;21.40;41.40;;;;;;4930912;28;45227;-65
2023/03/01 09:43:43;;;;;;;1.75;1.48;;;21.50;41.30;;;;;;4922758;28;45528;-65
2023/03/01 09:46:10;;;;;;;2.47;1.85;;;21.50;40.90;;;;;;4918999;28;48492;-65
2023/03/01 09:48:57;;;;;;;2.97;1.90;;;21.50;41.30;;;;;;4919382;28;46979;-66
2023/03/01 09:51:34;;;;;;;2.88;1.70;;;21.50;40.70;;;;;;4915699;28;45548;-66
2023/03/01 09:54:02;;;;;;;3.00;1.60;;;21.50;41.20;;;;;;4918479;28;45797;-66
2023/03/01 09:56:51;;;;;;;2.35;1.40;;;21.60;41.20;;;;;;4917037;28;46200;-66
2023/03/01 09:59:25;;;;;;;3.22;1.95;;;21.60;41.10;;;;;;4934076;28;45499;-65
2023/03/01 10:01:57;;;;;;;1.77;1.38;;;21.60;41.10;;;;;;4909805;28;45116;-65
2023/03/01 10:04:41;;;;;;;1.90;1.50;;;21.70;41.20;;;;;;4933239;28;45061;-65
2023/03/01 10:07:10;;;;;;;1.92;1.65;;;21.70;41.00;;;;;;4939810;28;46251;-65
2023/03/01 10:09:40;;;;;;;1.88;1.63;;;21.70;41.10;;;;;;4917291;28;45025;-64
2023/03/01 10:12:17;;;;;;;2.28;1.70;;;21.90;41.10;;;;;;4937791;28;44810;-65
2023/03/01 10:15:25;;;;;;;2.33;1.75;;;21.90;41.50;;;;;;4942885;28;45075;-65
2023/03/01 10:18:15;;;;;;;2.08;1.55;;;22.00;40.60;;;;;;4944090;28;45101;-66
2023/03/01 10:20:56;;;;;;;4.10;1.80;;;22.10;40.60;;;;;;4929541;28;46001;-65
2023/03/01 10:23:27;;;;;;;2.22;1.52;;;22.10;40.70;;;;;;4939874;28;45353;-65
2023/03/01 10:26:11;;;;;;;3.42;2.10;;;22.20;40.80;;;;;;4936201;28;45370;-65
2023/03/01 10:29:07;;;;;;;2.28;1.77;;;22.20;40.80;;;;;;4955241;28;45462;-65
2023/03/01 10:32:02;;;;;;;2.22;1.45;;;22.30;40.40;;;;;;4934561;28;44713;-65
2023/03/01 10:34:30;;;;;;;2.60;1.92;;;22.30;40.20;;;;;;4924043;28;45141;-65
2023/03/01 10:36:57;;;;;;;3.65;1.58;;;22.30;40.70;;;;;;4940291;28;44781;-65
2023/03/01 10:39:24;;;;;;;1.70;1.27;;;22.30;40.70;;;;;;4936634;28;45957;-65
2023/03/01 10:41:55;;;;;;;2.05;1.75;;;22.30;40.60;;;;;;4931843;28;45113;-65
2023/03/01 10:44:38;;;;;;;1.95;1.60;;;22.40;40.50;;;;;;4951756;28;45231;-64
2023/03/01 10:47:04;;;;;;;2.88;1.58;;;22.40;40.20;;;;;;4938264;28;45849;-64
2023/03/01 10:49:29;;;;;;;2.95;1.73;;;22.40;40.60;;;;;;4940842;28;45487;-64
2023/03/01 10:51:55;;;;;;;2.67;1.77;;;22.40;40.50;;;;;;4950519;28;45700;-64
2023/03/01 10:54:31;;;;;;;2.45;1.85;;;22.50;40.60;;;;;;4937267;28;45550;-65
2023/03/01 10:56:58;;;;;;;2.65;1.83;;;22.50;40.30;;;;;;4932761;28;45868;-64
2023/03/01 10:59:32;;;;;;;2.63;1.80;;;22.50;40.60;;;;;;4930194;28;46047;-65
2023/03/01 11:02:01;;;;;;;;;;;22.50;40.40;;;;;;4916486;28;45794;-65
2023/03/01 11:04:27;;;;;;;3.13;1.50;;;22.50;40.00;;;;;;4955341;28;45271;-65
2023/03/01 11:06:58;;;;;;;3.88;1.35;;;22.50;40.60;;;;;;4928528;28;45066;-64
2023/03/01 11:09:27;;;;;;;1.65;1.35;;;22.60;40.50;;;;;;4955680;28;45665;-64
2023/03/01 11:11:56;;;;;;;2.13;1.30;;;22.60;40.60;;;;;;4951843;28;45600;-64
2023/03/01 11:14:35;;;;;;;2.58;1.50;;;22.60;40.50;;;;;;4922698;28;45648;-64
2023/03/01 11:17:05;;;;;;;2.38;1.48;;;22.60;40.50;;;;;;4950168;28;45360;-64
2023/03/01 11:19:31;;;;;;;2.50;1.60;;;22.60;40.50;;;;;;4937855;28;45725;-65
2023/03/01 11:22:03;;;;;;;2.95;1.52;;;22.70;40.40;;;;;;4929571;28;45601;-64
2023/03/01 11:24:51;;;;;;;3.70;1.55;;;22.80;40.30;;;;;;4924235;28;45417;-64
2023/03/01 11:27:28;;;;;;;4.15;2.00;;;22.80;39.90;;;;;;4926890;28;45798;-65
2023/03/01 11:30:22;;;;;;;2.53;1.80;;;22.80;39.90;;;;;;4940384;28;46529;-64
2023/03/01 11:33:01;;;;;;;2.65;1.63;;;22.80;39.70;;;;;;4932464;28;46506;-65
2023/03/01 11:35:28;;;;;;;2.38;1.30;;;22.90;40.10;;;;;;4917620;28;45023;-64
2023/03/01 11:38:05;;;;;;;3.55;1.70;;;22.80;40.10;;;;;;4939059;28;45558;-63
2023/03/01 11:40:39;;;;;;;2.83;1.75;;;22.90;40.20;;;;;;4936267;28;46385;-62
2023/03/01 11:43:19;;;;;;;3.22;1.50;;;22.90;40.00;;;;;;4918351;28;45315;-62
2023/03/01 11:46:15;;;;;;;3.47;2.15;;;22.90;39.70;;;;;;4943430;28;45106;-62
2023/03/01 11:49:01;;;;;;;4.60;1.95;;;22.90;39.90;;;;;;4897036;28;45319;-64
2023/03/01 11:51:45;;;;;;;3.10;1.67;;;23.00;39.90;;;;;;4936060;28;44950;-65
2023/03/01 11:54:16;;;;;;;2.50;1.80;;;23.00;39.80;;;;;;4929506;28;46674;-65
2023/03/01 11:56:46;;;;;;;2.05;1.60;;;23.00;39.80;;;;;;4935225;28;45385;-66
2023/03/01 11:59:26;;;;;;;2.38;1.60;;;23.10;40.00;;;;;;4905363;28;45570;-64
2023/03/01 12:02:12;;;;;;;2.25;1.67;;;23.10;39.80;;;;;;4965384;28;45566;-65
2023/03/01 12:05:16;;;;;;;2.10;1.52;;;23.20;39.70;;;;;;4937900;28;45273;-64
2023/03/01 12:07:53;;;;;;;2.45;1.80;;;23.20;39.80;;;;;;4946142;28;45500;-65
2023/03/01 12:10:33;;;;;;;2.13;1.60;;;23.20;39.80;;;;;;4951592;28;45616;-64
2023/03/01 12:13:09;;;;;;;4.05;1.92;;;23.20;39.70;;;;;;4940412;28;45958;-65
2023/03/01 12:16:07;;;;;;;3.15;1.80;;;23.20;39.80;;;;;;4939800;28;45647;-64
2023/03/01 12:18:57;;;;;;;4.25;1.52;;;23.30;39.90;;;;;;4932188;28;45448;-64
2023/03/01 12:21:54;;;;;;;1.77;1.45;;;23.30;39.50;;;;;;4931811;28;46173;-64
2023/03/01 12:24:33;;;;;;;2.85;2.00;;;23.40;39.70;;;;;;4945757;28;46206;-63
2023/03/01 12:27:32;;;;;;;2.38;1.77;;;23.40;39.70;;;;;;4919936;28;44766;-64
2023/03/01 12:30:06;;;;;;;3.28;1.85;;;23.40;39.50;;;;;;4946436;28;45317;-65
2023/03/01 12:32:44;;;;;;;2.08;1.60;;;23.40;39.70;;;;;;4927056;28;45367;-65
2023/03/01 12:35:20;;;;;;;3.03;1.88;;;23.40;39.70;;;;;;4946671;28;46700;-65
2023/03/01 12:37:55;;;;;;;3.10;1.70;;;23.50;39.90;;;;;;4936968;28;45427;-65
2023/03/01 12:40:24;;;;;;;2.72;2.15;;;23.50;39.70;;;;;;4951899;28;44925;-65
2023/03/01 12:42:57;;;;;;;2.05;1.65;;;23.50;39.80;;;;;;4953456;28;45540;-63
2023/03/01 12:45:31;;;;;;;3.13;1.85;;;23.50;39.80;;;;;;4948515;28;46092;-60
2023/03/01 12:48:06;;;;;;;2.63;1.55;;;23.50;39.80;;;;;;4956053;28;45317;-63
2023/03/01 12:50:44;;;;;;;3.30;1.98;;;23.60;39.80;;;;;;4941899;28;46823;-63
2023/03/01 12:53:24;;;;;;;2.03;1.58;;;23.60;39.60;;;;;;4925251;28;45070;-62
2023/03/01 12:55:51;;;;;;;3.25;1.60;;;23.60;39.70;;;;;;4942861;28;46474;-63
2023/03/01 12:58:32;;;;;;;2.15;1.50;;;23.70;39.80;;;;;;4937084;28;45208;-63
2023/03/01 13:01:19;;;;;;;2.53;1.80;;;23.70;39.60;;;;;;4908364;28;45465;-63
2023/03/01 13:03:56;;;;;;;2.20;1.67;;;23.70;39.50;;;;;;4928133;28;45609;-63
2023/03/01 13:06:37;;;;;;;2.13;1.42;;;23.70;39.60;;;;;;4918252;28;46243;-62
2023/03/01 13:09:17;;;;;;;2.80;1.85;;;23.70;39.70;;;;;;4913306;28;45235;-62
2023/03/01 13:11:43;;;;;;;4.75;1.73;;;23.70;39.80;;;;;;4916937;28;45389;-63
2023/03/01 13:14:22;;;;;;;2.53;1.80;;;23.70;39.70;;;;;;4911397;28;45387;-64
2023/03/01 13:16:51;;;;;;;3.67;1.83;;;23.70;39.40;;;;;;4915782;28;45750;-64
2023/03/01 13:19:18;;;;;;;2.03;1.48;;;23.80;39.80;;;;;;4918810;28;45161;-63
2023/03/01 13:21:45;;;;;;;3.13;1.65;;;23.80;39.70;;;;;;4900924;28;45313;-63
2023/03/01 13:24:37;;;;;;;2.05;1.65;;;23.80;39.70;;;;;;4882379;28;45933;-63
2023/03/01 13:27:05;;;;;;;4.60;2.13;;;23.70;39.30;;;;;;4928492;28;46841;-63
2023/03/01 13:29:44;;;;;;;2.25;1.67;;;23.60;39.80;;;;;;4915273;28;45263;-64
2023/03/01 13:32:24;;;;;;;4.38;1.80;;;23.60;39.90;;;;;;4901907;28;45314;-64
2023/03/01 13:35:16;;;;;;;2.40;1.90;;;23.60;39.80;;;;;;4916115;28;45155;-63
2023/03/01 13:37:42;;;;;;;3.70;1.90;;;23.70;39.70;;;;;;4916320;28;46393;-64
2023/03/01 13:40:18;;;;;;;2.50;1.65;;;23.70;39.90;;;;;;4882909;28;45337;-63
2023/03/01 13:42:45;;;;;;;3.58;1.90;;;23.70;39.70;;;;;;4908685;28;45367;-63
2023/03/01 13:45:21;;;;;;;2.40;1.60;;;23.70;39.80;;;;;;4914203;28;45411;-64
2023/03/01 13:47:50;;;;;;;3.17;2.08;;;23.80;39.60;;;;;;4911490;28;45492;-65
2023/03/01 13:50:24;;;;;;;4.43;1.95;;;23.80;39.80;;;;;;4916311;28;45395;-63
2023/03/01 13:52:59;;;;;;;2.47;1.50;;;23.80;39.70;;;;;;4898790;28;45392;-63
2023/03/01 13:55:41;;;;;;;2.10;1.60;;;23.90;39.70;;;;;;4908079;28;45521;-64
2023/03/01 13:58:19;;;;;;;4.40;1.60;;;23.90;39.50;;;;;;4900351;28;47116;-63
2023/03/01 14:00:45;;;;;;;2.28;1.50;;;23.90;39.50;;;;;;4916845;28;45275;-64
2023/03/01 14:03:17;;;;;;;4.78;1.75;;;23.90;39.70;;;;;;4933519;28;45248;-64
2023/03/01 14:05:56;;;;;;;3.42;1.90;;;23.90;39.70;;;;;;4933030;28;45273;-63
2023/03/01 14:08:24;;;;;;;3.03;2.00;;;23.70;39.90;;;;;;4931034;28;45996;-64
2023/03/01 14:11:02;;;;;;;3.55;2.00;;;23.70;40.00;;;;;;4931192;28;47763;-64
2023/03/01 14:13:55;;;;;;;2.17;1.88;;;23.80;39.80;;;;;;4918452;28;45061;-63
2023/03/01 14:16:27;;;;;;;;;;;23.80;39.70;;;;;;4935505;28;45551;-63
2023/03/01 14:19:16;;;;;;;3.08;1.77;;;23.80;39.60;;;;;;4932957;28;45282;-64
2023/03/01 14:21:41;;;;;;;2.50;1.85;;;23.80;39.70;;;;;;4929483;28;45242;-63
2023/03/01 14:24:17;;;;;;;2.90;1.85;;;23.80;39.80;;;;;;4918105;28;45498;-63
2023/03/01 14:26:43;;;;;;;2.45;1.70;;;23.90;39.70;;;;;;4916411;28;45056;-63
2023/03/01 14:29:24;;;;;;;2.72;2.05;;;23.90;39.80;;;;;;4927342;28;45247;-61
2023/03/01 14:31:49;;;;;;;2.85;1.80;;;24.00;39.60;;;;;;4931732;28;45503;-63
2023/03/01 14:34:22;;;;;;;4.15;1.75;;;24.00;39.80;;;;;;4922444;28;45176;-63
2023/03/01 14:36:47;;;;;;;3.40;2.13;;;24.00;39.70;;;;;;4939327;28;45458;-63
2023/03/01 14:39:23;;;;;;;3.10;2.10;;;23.90;39.90;;;;;;4920970;28;45581;-65
2023/03/01 14:41:49;;;;;;;3.88;2.20;;;23.80;40.00;;;;;;4933815;28;45219;-63
2023/03/01 14:44:18;;;;;;;4.72;1.90;;;23.80;40.00;;;;;;4934017;28;45972;-63
2023/03/01 14:46:43;;;;;;;2.25;1.80;;;23.80;40.00;;;;;;4949873;28;44933;-63
2023/03/01 14:49:17;;;;;;;4.25;2.20;;;23.80;39.90;;;;;;4920174;28;45962;-63
2023/03/01 14:51:53;;;;;;;2.88;1.75;;;23.80;39.80;;;;;;4928359;28;45201;-63
2023/03/01 14:54:20;;;;;;;2.63;1.70;;;23.90;39.90;;;;;;4930991;28;45349;-65
2023/03/01 14:56:46;;;;;;;3.17;1.73;;;23.80;39.80;;;;;;4919851;28;45305;-63
2023/03/01 14:59:12;;;;;;;2.63;1.77;;;23.90;39.80;;;;;;4915788;28;46143;-63
2023/03/01 15:01:37;;;;;;;4.70;1.90;;;23.90;39.80;;;;;;4942847;28;45447;-62
2023/03/01 15:04:03;;;;;;;5.78;1.83;;;23.90;39.70;;;;;;4921810;28;44981;-62
2023/03/01 15:06:29;;;;;;;3.25;1.77;;;23.90;39.70;;;;;;4924761;28;45828;-62
2023/03/01 15:08:56;;;;;;;3.53;1.85;;;24.00;39.70;;;;;;4953049;28;46082;-63
2023/03/01 15:11:24;;;;;;;2.72;1.73;;;23.90;39.70;;;;;;4931274;28;45323;-63
2023/03/01 15:13:50;;;;;;;2.60;1.83;;;23.90;39.70;;;;;;4951601;28;45628;-62
2023/03/01 15:16:19;;;;;;;2.53;1.73;;;23.90;39.70;;;;;;4917415;28;46148;-62
2023/03/01 15:18:46;;;;;;;2.88;1.95;;;23.80;39.80;;;;;;4938446;28;45960;-62
2023/03/01 15:21:30;;;;;;;2.47;1.80;;;23.70;39.90;;;;;;4920678;28;44755;-63
2023/03/01 15:24:05;;;;;;;3.63;1.92;;;23.70;39.60;;;;;;4930719;28;44682;-63
2023/03/01 15:26:40;;;;;;;3.47;2.17;;;23.70;39.80;;;;;;4920282;28;45252;-63
2023/03/01 15:29:16;;;;;;;1.65;1.35;;;23.70;39.60;;;;;;4902370;28;45941;-63
2023/03/01 15:31:42;;;;;;;2.15;1.80;;;23.80;39.80;;;;;;4934111;28;46177;-63
2023/03/01 15:34:09;;;;;;;2.33;1.65;;;23.70;39.80;;;;;;4902507;28;45651;-63
2023/03/01 15:36:42;;;;;;;3.45;2.03;;;23.80;39.80;;;;;;4937127;28;45585;-63
2023/03/01 15:39:31;;;;;;;3.45;2.10;;;23.80;39.70;;;;;;4935138;28;45357;-63
2023/03/01 15:41:57;;;;;;;3.65;1.73;;;23.80;39.50;;;;;;4934056;28;45361;-63
2023/03/01 15:44:28;;;;;;;2.83;1.60;;;23.80;39.70;;;;;;4919316;28;45430;-63
2023/03/01 15:46:53;;;;;;;3.95;1.75;;;23.80;39.60;;;;;;4925754;28;45153;-63
2023/03/01 15:49:25;;;;;;;3.00;1.98;;;23.80;39.70;;;;;;4922084;28;45362;-63
2023/03/01 15:51:52;;;;;;;2.13;1.77;;;23.80;39.60;;;;;;4948798;28;45287;-63
2023/03/01 15:54:20;;;;;;;2.70;1.83;;;23.80;39.70;;;;;;4925033;28;44754;-63
2023/03/01 15:56:45;;;;;;;3.22;1.73;;;23.80;39.60;;;;;;4939063;28;44911;-63
2023/03/01 15:59:13;;;;;;;2.22;1.75;;;23.80;39.70;;;;;;4950184;28;45235;-63
2023/03/01 16:01:38;;;;;;;2.47;1.90;;;23.80;39.70;;;;;;4924193;28;44835;-63
2023/03/01 16:04:04;;;;;;;1.95;1.60;;;23.80;39.70;;;;;;4949235;28;45983;-63
2023/03/01 16:06:29;;;;;;;2.45;1.55;;;23.80;39.70;;;;;;4934227;28;45321;-63
2023/03/01 16:08:55;;;;;;;2.15;1.50;;;23.80;39.60;;;;;;4937360;28;47235;-63
2023/03/01 16:11:23;;;;;;;3.25;1.90;;;23.80;39.60;;;;;;4932474;28;45515;-63
2023/03/01 16:13:49;;;;;;;3.13;1.92;;;23.80;39.70;;;;;;4954446;28;45500;-63
2023/03/01 16:16:16;;;;;;;2.17;1.70;;;23.80;39.70;;;;;;4923832;28;48937;-63
2023/03/01 16:18:45;;;;;;;2.95;2.05;;;23.80;39.70;;;;;;4912191;28;45260;-63
2023/03/01 16:21:19;;;;;;;2.95;2.05;;;23.70;39.70;;;;;;4934988;28;44902;-63
2023/03/01 16:23:45;;;;;;;2.03;1.63;;;23.70;39.70;;;;;;4941645;28;45553;-65
2023/03/01 16:26:12;;;;;;;3.03;2.20;;;23.70;39.80;;;;;;4955297;28;44702;-64
2023/03/01 16:28:38;;;;;;;3.03;2.00;;;23.70;39.80;;;;;;4924630;28;46253;-63
2023/03/01 16:31:05;;;;;;;4.20;1.85;;;23.70;39.70;;;;;;4954848;28;45740;-63
2023/03/01 16:33:31;;;;;;;2.58;1.83;;;23.70;39.70;;;;;;4959164;28;48243;-63
2023/03/01 16:35:56;;;;;;;3.00;2.00;;;23.70;39.70;;;;;;4938346;28;45253;-63
2023/03/01 16:38:22;;;;;;;1.90;1.70;;;23.70;39.60;;;;;;4940849;28;45680;-63
2023/03/01 16:40:48;;;;;;;2.17;1.83;;;23.70;39.60;;;;;;4953655;28;45596;-63
2023/03/01 16:43:14;;;;;;;2.33;1.83;;;23.70;39.60;;;;;;4942403;28;44718;-63
2023/03/01 16:45:40;;;;;;;2.13;1.67;;;23.70;39.60;;;;;;4953190;28;45640;-63
2023/03/01 16:48:06;;;;;;;2.38;1.65;;;23.80;39.50;;;;;;4933988;28;47714;-63
2023/03/01 16:50:31;;;;;;;2.00;1.52;;;23.80;39.60;;;;;;4938472;28;45196;-63
2023/03/01 16:52:57;;;;;;;2.45;1.60;;;23.70;39.60;;;;;;4942875;28;45344;-63
2023/03/01 16:55:23;;;;;;;3.45;2.10;;;23.80;39.50;;;;;;4955863;28;44743;-63
2023/03/01 16:57:48;;;;;;;2.78;1.88;;;23.70;39.50;;;;;;4954382;28;45868;-63
2023/03/01 17:00:14;;;;;;;2.20;1.67;;;23.80;39.50;;;;;;4931832;28;45236;-63
2023/03/01 17:02:40;;;;;;;2.50;1.70;;;23.80;39.50;;;;;;4931591;28;45326;-63
2023/03/01 17:05:06;;;;;;;3.15;1.90;;;23.80;39.50;;;;;;4925537;28;45703;-64